sensor_id;sensor_type;location;lat;lon;timestamp;pressure;altitude;pressure_sealevel;temperature;humidity
43071;BME280;36278;47.952;21.714;2023-03-22T00:00:24;100307.72;;;9.10;91.05
43071;BME280;36278;47.952;21.714;2023-03-22T00:02:52;100312.28;;;9.08;91.33
43071;BME280;36278;47.952;21.714;2023-03-22T00:05:18;100305.63;;;9.02;91.40
43071;BME280;36278;47.952;21.714;2023-03-22T00:07:43;100302.38;;;8.98;91.66
43071;BME280;36278;47.952;21.714;2023-03-22T00:10:09;100288.63;;;8.93;91.55
43071;BME280;36278;47.952;21.714;2023-03-22T00:12:34;100294.22;;;9.02;91.20
43071;BME280;36278;47.952;21.714;2023-03-22T00:15:00;100290.22;;;8.96;91.19
43071;BME280;36278;47.952;21.714;2023-03-22T00:17:25;100288.50;;;8.95;91.70
43071;BME280;36278;47.952;21.714;2023-03-22T00:19:51;100280.38;;;8.98;91.43
43071;BME280;36278;47.952;21.714;2023-03-22T00:22:19;100282.38;;;8.94;91.25
43071;BME280;36278;47.952;21.714;2023-03-22T00:24:44;100283.22;;;8.95;91.01
43071;BME280;36278;47.952;21.714;2023-03-22T00:27:10;100283.03;;;8.98;90.96
43071;BME280;36278;47.952;21.714;2023-03-22T00:29:35;100275.22;;;8.96;90.78
43071;BME280;36278;47.952;21.714;2023-03-22T00:32:01;100271.31;;;8.89;91.17
43071;BME280;36278;47.952;21.714;2023-03-22T00:34:30;100270.22;;;8.92;91.50
43071;BME280;36278;47.952;21.714;2023-03-22T00:36:56;100278.38;;;8.89;91.50
43071;BME280;36278;47.952;21.714;2023-03-22T00:39:21;100276.78;;;8.86;91.12
43071;BME280;36278;47.952;21.714;2023-03-22T00:41:47;100271.59;;;8.85;91.09
43071;BME280;36278;47.952;21.714;2023-03-22T00:44:12;100273.41;;;8.84;91.37
43071;BME280;36278;47.952;21.714;2023-03-22T00:46:38;100274.97;;;8.87;91.08
43071;BME280;36278;47.952;21.714;2023-03-22T00:49:03;100269.63;;;8.88;90.94
43071;BME280;36278;47.952;21.714;2023-03-22T00:51:29;100269.94;;;8.96;90.14
43071;BME280;36278;47.952;21.714;2023-03-22T00:53:54;100257.25;;;8.89;90.54
43071;BME280;36278;47.952;21.714;2023-03-22T00:56:20;100265.06;;;8.90;90.63
43071;BME280;36278;47.952;21.714;2023-03-22T00:58:47;100272.16;;;8.90;90.80
43071;BME280;36278;47.952;21.714;2023-03-22T01:01:13;100264.63;;;8.84;91.21
43071;BME280;36278;47.952;21.714;2023-03-22T01:03:39;100261.16;;;8.83;91.11
43071;BME280;36278;47.952;21.714;2023-03-22T01:06:06;100260.31;;;8.83;91.32
43071;BME280;36278;47.952;21.714;2023-03-22T01:08:31;100253.13;;;8.85;91.02
43071;BME280;36278;47.952;21.714;2023-03-22T01:10:57;100252.69;;;8.78;91.60
43071;BME280;36278;47.952;21.714;2023-03-22T01:13:23;100261.47;;;8.79;91.56
43071;BME280;36278;47.952;21.714;2023-03-22T01:15:49;100253.88;;;8.74;91.49
43071;BME280;36278;47.952;21.714;2023-03-22T01:18:15;100253.88;;;8.74;91.10
43071;BME280;36278;47.952;21.714;2023-03-22T01:20:40;100255.44;;;8.77;91.47
43071;BME280;36278;47.952;21.714;2023-03-22T01:23:06;100252.69;;;8.78;91.03
43071;BME280;36278;47.952;21.714;2023-03-22T01:25:31;100251.53;;;8.82;90.31
43071;BME280;36278;47.952;21.714;2023-03-22T01:27:57;100242.25;;;8.64;91.32
43071;BME280;36278;47.952;21.714;2023-03-22T01:30:23;100244.56;;;8.68;91.12
43071;BME280;36278;47.952;21.714;2023-03-22T01:32:48;100252.06;;;8.75;91.26
43071;BME280;36278;47.952;21.714;2023-03-22T01:35:14;100246.44;;;8.79;91.11
43071;BME280;36278;47.952;21.714;2023-03-22T01:37:39;100249.00;;;8.81;90.54
43071;BME280;36278;47.952;21.714;2023-03-22T01:40:05;100249.44;;;8.75;90.71
43071;BME280;36278;47.952;21.714;2023-03-22T01:42:31;100241.31;;;8.65;91.13
43071;BME280;36278;47.952;21.714;2023-03-22T01:47:38;100246.69;;;8.63;91.91
43071;BME280;36278;47.952;21.714;2023-03-22T01:50:05;100244.97;;;8.62;91.52
43071;BME280;36278;47.952;21.714;2023-03-22T01:52:31;100246.38;;;8.55;92.49
43071;BME280;36278;47.952;21.714;2023-03-22T01:54:57;100239.47;;;8.53;92.08
43071;BME280;36278;47.952;21.714;2023-03-22T01:57:22;100253.88;;;8.49;92.28
43071;BME280;36278;47.952;21.714;2023-03-22T01:59:48;100246.34;;;8.42;92.50
43071;BME280;36278;47.952;21.714;2023-03-22T02:02:15;100256.06;;;8.42;92.40
43071;BME280;36278;47.952;21.714;2023-03-22T02:04:46;100254.56;;;8.38;93.12
43071;BME280;36278;47.952;21.714;2023-03-22T02:07:15;100252.16;;;8.35;93.39
43071;BME280;36278;47.952;21.714;2023-03-22T02:09:51;100251.38;;;8.33;93.16
43071;BME280;36278;47.952;21.714;2023-03-22T02:17:43;100251.38;;;8.33;93.02
43071;BME280;36278;47.952;21.714;2023-03-22T02:20:51;100253.00;;;8.35;92.61
43071;BME280;36278;47.952;21.714;2023-03-22T02:29:18;100251.34;;;8.20;93.74
43071;BME280;36278;47.952;21.714;2023-03-22T02:43:01;100258.06;;;7.99;95.29
43071;BME280;36278;47.952;21.714;2023-03-22T02:45:42;100261.09;;;7.93;95.46
43071;BME280;36278;47.952;21.714;2023-03-22T02:48:28;100266.66;;;7.88;95.89
43071;BME280;36278;47.952;21.714;2023-03-22T02:50:59;100261.88;;;7.80;95.81
43071;BME280;36278;47.952;21.714;2023-03-22T02:53:38;100261.88;;;7.80;95.65
43071;BME280;36278;47.952;21.714;2023-03-22T02:56:07;100263.03;;;7.76;96.69
43071;BME280;36278;47.952;21.714;2023-03-22T02:58:41;100256.38;;;7.71;96.40
43071;BME280;36278;47.952;21.714;2023-03-22T03:01:26;100260.78;;;7.70;96.66
43071;BME280;36278;47.952;21.714;2023-03-22T03:03:58;100254.03;;;7.66;96.47
43071;BME280;36278;47.952;21.714;2023-03-22T03:06:28;100256.69;;;7.66;97.02
43071;BME280;36278;47.952;21.714;2023-03-22T03:08:57;100262.47;;;7.71;96.25
43071;BME280;36278;47.952;21.714;2023-03-22T03:11:27;100263.44;;;7.70;96.67
43071;BME280;36278;47.952;21.714;2023-03-22T03:13:53;100260.69;;;7.72;97.21
43071;BME280;36278;47.952;21.714;2023-03-22T03:16:20;100271.06;;;7.75;97.02
43071;BME280;36278;47.952;21.714;2023-03-22T03:21:47;100259.16;;;7.82;96.04
43071;BME280;36278;47.952;21.714;2023-03-22T03:24:48;100252.88;;;7.70;96.46
43071;BME280;36278;47.952;21.714;2023-03-22T03:27:36;100256.19;;;7.74;96.09
43071;BME280;36278;47.952;21.714;2023-03-22T03:30:21;100252.03;;;7.70;96.13
43071;BME280;36278;47.952;21.714;2023-03-22T03:32:55;100262.09;;;7.77;95.75
43071;BME280;36278;47.952;21.714;2023-03-22T03:35:30;100261.25;;;7.77;95.89
43071;BME280;36278;47.952;21.714;2023-03-22T03:38:00;100265.06;;;7.85;94.61
43071;BME280;36278;47.952;21.714;2023-03-22T03:40:33;100274.78;;;7.85;95.12
43071;BME280;36278;47.952;21.714;2023-03-22T03:43:02;100273.00;;;7.85;95.24
43071;BME280;36278;47.952;21.714;2023-03-22T03:45:29;100268.34;;;7.89;95.21
43071;BME280;36278;47.952;21.714;2023-03-22T03:47:59;100265.53;;;7.92;95.16
43071;BME280;36278;47.952;21.714;2023-03-22T03:50:25;100267.00;;;7.96;95.15
43071;BME280;36278;47.952;21.714;2023-03-22T03:52:52;100267.56;;;8.01;94.94
43071;BME280;36278;47.952;21.714;2023-03-22T03:55:19;100275.38;;;8.03;94.23
43071;BME280;36278;47.952;21.714;2023-03-22T03:57:45;100267.34;;;8.04;94.48
43071;BME280;36278;47.952;21.714;2023-03-22T04:00:11;100261.22;;;8.04;94.56
43071;BME280;36278;47.952;21.714;2023-03-22T04:02:40;100263.06;;;8.16;92.85
43071;BME280;36278;47.952;21.714;2023-03-22T04:05:06;100271.50;;;8.21;93.00
43071;BME280;36278;47.952;21.714;2023-03-22T04:07:33;100280.38;;;8.20;93.05
43071;BME280;36278;47.952;21.714;2023-03-22T04:09:58;100283.75;;;8.22;92.50
43071;BME280;36278;47.952;21.714;2023-03-22T04:12:24;100274.97;;;8.22;92.36
43071;BME280;36278;47.952;21.714;2023-03-22T04:14:49;100277.72;;;8.20;92.06
43071;BME280;36278;47.952;21.714;2023-03-22T04:17:15;100279.25;;;8.24;91.67
43071;BME280;36278;47.952;21.714;2023-03-22T04:19:40;100276.69;;;8.23;91.46
43071;BME280;36278;47.952;21.714;2023-03-22T04:22:06;100284.06;;;8.30;91.25
43071;BME280;36278;47.952;21.714;2023-03-22T04:24:41;100295.25;;;8.21;92.18
43071;BME280;36278;47.952;21.714;2023-03-22T04:27:07;100291.44;;;8.12;92.58
43071;BME280;36278;47.952;21.714;2023-03-22T04:29:33;100299.34;;;8.12;92.52
43071;BME280;36278;47.952;21.714;2023-03-22T04:32:02;100295.88;;;8.12;92.92
43071;BME280;36278;47.952;21.714;2023-03-22T04:34:28;100297.75;;;8.10;93.58
43071;BME280;36278;47.952;21.714;2023-03-22T04:36:53;100297.75;;;8.10;93.49
43071;BME280;36278;47.952;21.714;2023-03-22T04:39:19;100297.56;;;8.13;93.93
43071;BME280;36278;47.952;21.714;2023-03-22T04:41:44;100295.53;;;8.04;93.04
43071;BME280;36278;47.952;21.714;2023-03-22T04:44:10;100297.22;;;8.05;94.15
43071;BME280;36278;47.952;21.714;2023-03-22T04:46:36;100291.09;;;8.04;92.99
43071;BME280;36278;47.952;21.714;2023-03-22T04:49:03;100290.81;;;8.09;93.33
43071;BME280;36278;47.952;21.714;2023-03-22T04:51:28;100280.53;;;8.04;93.42
43071;BME280;36278;47.952;21.714;2023-03-22T04:53:57;100290.91;;;8.07;93.37
43071;BME280;36278;47.952;21.714;2023-03-22T04:56:22;100292.03;;;8.03;93.67
43071;BME280;36278;47.952;21.714;2023-03-22T04:58:48;100296.56;;;8.01;93.96
43071;BME280;36278;47.952;21.714;2023-03-22T05:01:15;100300.66;;;7.93;94.77
43071;BME280;36278;47.952;21.714;2023-03-22T05:03:41;100296.72;;;7.85;94.65
43071;BME280;36278;47.952;21.714;2023-03-22T05:06:10;100298.72;;;7.82;94.74
43071;BME280;36278;47.952;21.714;2023-03-22T05:08:36;100301.44;;;7.80;94.61
43071;BME280;36278;47.952;21.714;2023-03-22T05:11:14;100301.53;;;7.79;95.27
43071;BME280;36278;47.952;21.714;2023-03-22T05:13:40;100301.09;;;7.72;95.19
43071;BME280;36278;47.952;21.714;2023-03-22T05:16:07;100304.88;;;7.68;96.12
43071;BME280;36278;47.952;21.714;2023-03-22T05:18:33;100302.03;;;7.71;95.62
43071;BME280;36278;47.952;21.714;2023-03-22T05:21:02;100306.19;;;7.75;96.09
43071;BME280;36278;47.952;21.714;2023-03-22T05:23:31;100309.66;;;7.76;95.68
43071;BME280;36278;47.952;21.714;2023-03-22T05:25:56;100303.66;;;7.74;96.44
43071;BME280;36278;47.952;21.714;2023-03-22T05:28:22;100308.81;;;7.75;95.86
43071;BME280;36278;47.952;21.714;2023-03-22T05:30:49;100304.78;;;7.70;96.04
43071;BME280;36278;47.952;21.714;2023-03-22T05:33:16;100303.94;;;7.69;95.93
43071;BME280;36278;47.952;21.714;2023-03-22T05:35:46;100308.72;;;7.77;95.82
43071;BME280;36278;47.952;21.714;2023-03-22T05:38:11;100306.91;;;7.77;95.43
43071;BME280;36278;47.952;21.714;2023-03-22T05:40:37;100306.06;;;7.77;95.79
43071;BME280;36278;47.952;21.714;2023-03-22T05:43:03;100311.13;;;7.80;96.17
43071;BME280;36278;47.952;21.714;2023-03-22T05:45:28;100317.63;;;7.88;95.18
43071;BME280;36278;47.952;21.714;2023-03-22T05:47:55;100317.88;;;7.98;95.18
43071;BME280;36278;47.952;21.714;2023-03-22T05:50:22;100326.56;;;8.13;94.15
43071;BME280;36278;47.952;21.714;2023-03-22T05:52:49;100325.44;;;8.17;94.78
43071;BME280;36278;47.952;21.714;2023-03-22T05:55:15;100337.53;;;8.34;93.56
43071;BME280;36278;47.952;21.714;2023-03-22T05:57:45;100323.63;;;8.45;92.18
43071;BME280;36278;47.952;21.714;2023-03-22T06:00:14;100328.19;;;8.42;92.38
43071;BME280;36278;47.952;21.714;2023-03-22T06:02:45;100334.88;;;8.34;92.87
43071;BME280;36278;47.952;21.714;2023-03-22T06:05:12;100330.09;;;8.26;93.59
43071;BME280;36278;47.952;21.714;2023-03-22T06:07:39;100338.03;;;8.26;92.80
43071;BME280;36278;47.952;21.714;2023-03-22T06:10:07;100334.88;;;8.34;93.24
43071;BME280;36278;47.952;21.714;2023-03-22T06:12:33;100345.91;;;8.40;92.87
43071;BME280;36278;47.952;21.714;2023-03-22T06:14:59;100350.59;;;8.50;92.15
43071;BME280;36278;47.952;21.714;2023-03-22T06:17:25;100346.66;;;8.42;92.20
43071;BME280;36278;47.952;21.714;2023-03-22T06:19:51;100340.03;;;8.50;92.30
43071;BME280;36278;47.952;21.714;2023-03-22T06:22:19;100345.53;;;8.59;92.30
43071;BME280;36278;47.952;21.714;2023-03-22T06:24:44;100361.19;;;8.75;91.57
43071;BME280;36278;47.952;21.714;2023-03-22T06:27:10;100359.63;;;8.85;90.90
43071;BME280;36278;47.952;21.714;2023-03-22T06:29:36;100365.44;;;9.03;89.42
43071;BME280;36278;47.952;21.714;2023-03-22T06:32:02;100361.25;;;9.13;89.78
43071;BME280;36278;47.952;21.714;2023-03-22T06:34:27;100356.59;;;9.30;88.63
43071;BME280;36278;47.952;21.714;2023-03-22T06:36:54;100360.56;;;9.35;88.22
43071;BME280;36278;47.952;21.714;2023-03-22T06:39:19;100351.56;;;9.50;87.28
43071;BME280;36278;47.952;21.714;2023-03-22T06:41:45;100352.91;;;9.69;86.22
43071;BME280;36278;47.952;21.714;2023-03-22T06:44:12;100348.78;;;9.77;85.98
43071;BME280;36278;47.952;21.714;2023-03-22T06:46:37;100358.88;;;9.96;84.33
43071;BME280;36278;47.952;21.714;2023-03-22T06:49:03;100347.16;;;10.11;83.06
43071;BME280;36278;47.952;21.714;2023-03-22T06:51:29;100361.00;;;10.28;82.20
43071;BME280;36278;47.952;21.714;2023-03-22T06:53:54;100353.94;;;10.39;81.62
43071;BME280;36278;47.952;21.714;2023-03-22T06:56:20;100362.56;;;10.54;79.95
43071;BME280;36278;47.952;21.714;2023-03-22T06:58:45;100364.25;;;10.55;79.79
43071;BME280;36278;47.952;21.714;2023-03-22T07:01:11;100363.94;;;10.71;79.04
43071;BME280;36278;47.952;21.714;2023-03-22T07:03:36;100357.66;;;10.72;78.26
43071;BME280;36278;47.952;21.714;2023-03-22T07:06:03;100358.91;;;10.90;76.44
43071;BME280;36278;47.952;21.714;2023-03-22T07:08:29;100361.81;;;10.87;76.55
43071;BME280;36278;47.952;21.714;2023-03-22T07:10:55;100358.25;;;11.00;76.24
43071;BME280;36278;47.952;21.714;2023-03-22T07:13:21;100363.78;;;11.19;74.29
43071;BME280;36278;47.952;21.714;2023-03-22T07:15:46;100363.66;;;11.32;73.80
43071;BME280;36278;47.952;21.714;2023-03-22T07:18:12;100365.63;;;11.41;74.14
43071;BME280;36278;47.952;21.714;2023-03-22T07:20:37;100369.13;;;11.52;72.11
43071;BME280;36278;47.952;21.714;2023-03-22T07:23:06;100370.22;;;11.50;72.92
43071;BME280;36278;47.952;21.714;2023-03-22T07:25:32;100366.56;;;11.29;73.10
43071;BME280;36278;47.952;21.714;2023-03-22T07:27:59;100372.13;;;11.26;73.61
43071;BME280;36278;47.952;21.714;2023-03-22T07:30:25;100363.81;;;11.41;73.82
43071;BME280;36278;47.952;21.714;2023-03-22T07:32:50;100364.53;;;11.55;73.07
43071;BME280;36278;47.952;21.714;2023-03-22T07:35:16;100374.19;;;11.67;72.07
43071;BME280;36278;47.952;21.714;2023-03-22T07:37:43;100376.81;;;11.78;71.63
43071;BME280;36278;47.952;21.714;2023-03-22T07:40:10;100371.19;;;11.83;70.70
43071;BME280;36278;47.952;21.714;2023-03-22T07:42:35;100380.69;;;12.07;69.21
43071;BME280;36278;47.952;21.714;2023-03-22T07:45:01;100384.47;;;12.26;68.34
43071;BME280;36278;47.952;21.714;2023-03-22T07:47:27;100384.19;;;12.40;67.61
43071;BME280;36278;47.952;21.714;2023-03-22T07:49:53;100379.47;;;12.44;67.58
43071;BME280;36278;47.952;21.714;2023-03-22T07:52:18;100371.78;;;12.29;65.61
43071;BME280;36278;47.952;21.714;2023-03-22T07:54:44;100379.03;;;12.27;66.25
43071;BME280;36278;47.952;21.714;2023-03-22T07:57:09;100383.31;;;12.51;65.75
43071;BME280;36278;47.952;21.714;2023-03-22T07:59:35;100376.59;;;12.68;64.16
43071;BME280;36278;47.952;21.714;2023-03-22T08:02:00;100372.31;;;12.76;63.84
43071;BME280;36278;47.952;21.714;2023-03-22T08:04:26;100370.31;;;12.89;64.57
43071;BME280;36278;47.952;21.714;2023-03-22T08:06:52;100377.53;;;12.99;63.98
43071;BME280;36278;47.952;21.714;2023-03-22T08:09:23;100366.19;;;12.97;63.77
43071;BME280;36278;47.952;21.714;2023-03-22T08:11:49;100368.91;;;13.06;62.43
43071;BME280;36278;47.952;21.714;2023-03-22T08:14:15;100375.25;;;13.15;61.61
43071;BME280;36278;47.952;21.714;2023-03-22T08:16:41;100372.53;;;13.26;59.89
43071;BME280;36278;47.952;21.714;2023-03-22T08:19:08;100364.72;;;13.34;61.33
43071;BME280;36278;47.952;21.714;2023-03-22T08:21:34;100360.88;;;13.48;60.23
43071;BME280;36278;47.952;21.714;2023-03-22T08:24:00;100364.03;;;13.63;59.71
43071;BME280;36278;47.952;21.714;2023-03-22T08:26:26;100368.00;;;13.78;59.07
43071;BME280;36278;47.952;21.714;2023-03-22T08:28:51;100362.41;;;13.91;59.09
43071;BME280;36278;47.952;21.714;2023-03-22T08:31:17;100362.31;;;14.02;58.10
43071;BME280;36278;47.952;21.714;2023-03-22T08:33:44;100350.53;;;13.95;57.79
43071;BME280;36278;47.952;21.714;2023-03-22T08:36:16;100361.56;;;13.90;57.95
43071;BME280;36278;47.952;21.714;2023-03-22T08:38:42;100358.50;;;13.95;58.01
43071;BME280;36278;47.952;21.714;2023-03-22T08:41:10;100361.06;;;14.16;57.38
43071;BME280;36278;47.952;21.714;2023-03-22T08:43:36;100353.66;;;14.29;56.74
43071;BME280;36278;47.952;21.714;2023-03-22T08:46:02;100362.81;;;14.55;55.31
43071;BME280;36278;47.952;21.714;2023-03-22T08:48:27;100367.31;;;14.74;55.08
43071;BME280;36278;47.952;21.714;2023-03-22T08:50:55;100357.47;;;14.84;53.99
43071;BME280;36278;47.952;21.714;2023-03-22T08:53:21;100362.81;;;14.84;52.93
43071;BME280;36278;47.952;21.714;2023-03-22T08:55:47;100363.31;;;14.98;51.96
43071;BME280;36278;47.952;21.714;2023-03-22T08:58:14;100349.72;;;15.01;51.88
43071;BME280;36278;47.952;21.714;2023-03-22T09:00:41;100364.88;;;15.10;51.16
43071;BME280;36278;47.952;21.714;2023-03-22T09:03:08;100367.34;;;15.21;51.17
43071;BME280;36278;47.952;21.714;2023-03-22T09:05:33;100362.41;;;15.36;50.32
43071;BME280;36278;47.952;21.714;2023-03-22T09:07:59;100358.59;;;15.38;51.06
43071;BME280;36278;47.952;21.714;2023-03-22T09:10:27;100367.38;;;15.58;50.42
43071;BME280;36278;47.952;21.714;2023-03-22T09:12:53;100357.13;;;15.54;50.95
43071;BME280;36278;47.952;21.714;2023-03-22T09:15:19;100357.94;;;15.74;50.79
43071;BME280;36278;47.952;21.714;2023-03-22T09:17:44;100357.81;;;15.93;49.82
43071;BME280;36278;47.952;21.714;2023-03-22T09:20:10;100358.59;;;16.03;49.20
43071;BME280;36278;47.952;21.714;2023-03-22T09:22:36;100359.13;;;16.07;49.78
43071;BME280;36278;47.952;21.714;2023-03-22T09:25:01;100363.72;;;15.96;47.82
43071;BME280;36278;47.952;21.714;2023-03-22T09:27:27;100358.34;;;15.69;48.54
43071;BME280;36278;47.952;21.714;2023-03-22T09:29:53;100352.13;;;15.78;47.71
43071;BME280;36278;47.952;21.714;2023-03-22T09:32:18;100355.78;;;15.77;45.33
43071;BME280;36278;47.952;21.714;2023-03-22T09:34:44;100348.88;;;16.02;45.28
43071;BME280;36278;47.952;21.714;2023-03-22T09:37:09;100342.72;;;16.02;46.36
43071;BME280;36278;47.952;21.714;2023-03-22T09:39:38;100342.28;;;16.24;46.28
43071;BME280;36278;47.952;21.714;2023-03-22T09:42:06;100346.41;;;16.54;47.92
43071;BME280;36278;47.952;21.714;2023-03-22T09:44:42;100342.34;;;16.86;46.65
43071;BME280;36278;47.952;21.714;2023-03-22T09:47:15;100345.34;;;17.08;45.88
43071;BME280;36278;47.952;21.714;2023-03-22T09:49:44;100335.31;;;16.85;46.43
43071;BME280;36278;47.952;21.714;2023-03-22T09:52:14;100343.31;;;17.02;45.82
43071;BME280;36278;47.952;21.714;2023-03-22T09:54:43;100341.09;;;16.98;46.28
43071;BME280;36278;47.952;21.714;2023-03-22T10:03:04;100342.28;;;16.77;45.85
43071;BME280;36278;47.952;21.714;2023-03-22T10:05:41;100343.50;;;16.65;46.10
43071;BME280;36278;47.952;21.714;2023-03-22T10:10:36;100342.81;;;16.81;46.11
43071;BME280;36278;47.952;21.714;2023-03-22T10:13:18;100335.06;;;16.96;45.60
43071;BME280;36278;47.952;21.714;2023-03-22T10:15:50;100335.09;;;16.24;46.79
43071;BME280;36278;47.952;21.714;2023-03-22T10:18:22;100331.94;;;16.65;47.54
43071;BME280;36278;47.952;21.714;2023-03-22T10:21:04;100332.91;;;16.99;46.94
43071;BME280;36278;47.952;21.714;2023-03-22T10:26:22;100342.72;;;17.17;45.96
43071;BME280;36278;47.952;21.714;2023-03-22T10:29:12;100346.09;;;17.19;45.00
43071;BME280;36278;47.952;21.714;2023-03-22T10:31:42;100341.94;;;17.58;44.28
43071;BME280;36278;47.952;21.714;2023-03-22T10:34:19;100341.47;;;17.63;44.64
43071;BME280;36278;47.952;21.714;2023-03-22T10:36:47;100337.31;;;18.11;43.62
43071;BME280;36278;47.952;21.714;2023-03-22T10:39:41;100340.34;;;18.40;43.15
43071;BME280;36278;47.952;21.714;2023-03-22T10:42:19;100345.53;;;17.41;43.94
43071;BME280;36278;47.952;21.714;2023-03-22T10:44:53;100337.31;;;16.83;44.35
43071;BME280;36278;47.952;21.714;2023-03-22T10:47:28;100341.50;;;16.49;46.39
43071;BME280;36278;47.952;21.714;2023-03-22T10:49:56;100337.63;;;16.79;45.33
43071;BME280;36278;47.952;21.714;2023-03-22T10:52:38;100344.09;;;17.21;44.32
43071;BME280;36278;47.952;21.714;2023-03-22T10:55:12;100334.38;;;17.54;43.69
43071;BME280;36278;47.952;21.714;2023-03-22T10:57:38;100331.03;;;17.52;43.54
43071;BME280;36278;47.952;21.714;2023-03-22T11:00:05;100328.31;;;17.78;42.92
43071;BME280;36278;47.952;21.714;2023-03-22T11:02:51;100317.53;;;18.12;42.49
43071;BME280;36278;47.952;21.714;2023-03-22T11:05:23;100321.34;;;17.59;42.97
43071;BME280;36278;47.952;21.714;2023-03-22T11:07:49;100322.09;;;16.83;42.96
43071;BME280;36278;47.952;21.714;2023-03-22T11:10:33;100312.19;;;17.27;42.33
43071;BME280;36278;47.952;21.714;2023-03-22T11:15:39;100292.81;;;17.76;42.07
43071;BME280;36278;47.952;21.714;2023-03-22T11:18:13;100297.25;;;18.01;41.24
43071;BME280;36278;47.952;21.714;2023-03-22T11:20:42;100278.97;;;18.13;41.29
43071;BME280;36278;47.952;21.714;2023-03-22T11:23:18;100288.22;;;18.27;41.60
43071;BME280;36278;47.952;21.714;2023-03-22T11:25:47;100280.19;;;18.43;42.04
43071;BME280;36278;47.952;21.714;2023-03-22T11:28:46;100284.88;;;18.16;43.22
43071;BME280;36278;47.952;21.714;2023-03-22T11:31:15;100286.97;;;17.46;44.01
43071;BME280;36278;47.952;21.714;2023-03-22T11:34:00;100274.25;;;17.48;43.64
43071;BME280;36278;47.952;21.714;2023-03-22T11:36:30;100281.19;;;17.67;43.08
43071;BME280;36278;47.952;21.714;2023-03-22T11:38:58;100284.53;;;18.52;41.85
43071;BME280;36278;47.952;21.714;2023-03-22T11:41:27;100263.19;;;19.08;40.94
43071;BME280;36278;47.952;21.714;2023-03-22T11:44:15;100262.69;;;18.96;40.98
43071;BME280;36278;47.952;21.714;2023-03-22T11:46:51;100273.25;;;18.08;41.42
43071;BME280;36278;47.952;21.714;2023-03-22T11:49:20;100267.41;;;17.96;42.44
43071;BME280;36278;47.952;21.714;2023-03-22T11:51:49;100274.78;;;17.94;42.06
43071;BME280;36278;47.952;21.714;2023-03-22T11:54:31;100271.31;;;18.67;40.91
43071;BME280;36278;47.952;21.714;2023-03-22T11:57:03;100259.84;;;18.89;40.24
43071;BME280;36278;47.952;21.714;2023-03-22T11:59:47;100253.50;;;19.77;37.96
43071;BME280;36278;47.952;21.714;2023-03-22T12:02:27;100253.41;;;20.16;37.11
43071;BME280;36278;47.952;21.714;2023-03-22T12:05:10;100262.25;;;19.31;38.64
43071;BME280;36278;47.952;21.714;2023-03-22T12:07:37;100257.13;;;19.05;39.65
43071;BME280;36278;47.952;21.714;2023-03-22T12:10:25;100251.13;;;18.87;40.28
43071;BME280;36278;47.952;21.714;2023-03-22T12:13:34;100247.16;;;18.75;40.19
43071;BME280;36278;47.952;21.714;2023-03-22T12:16:05;100240.22;;;19.36;38.43
43071;BME280;36278;47.952;21.714;2023-03-22T12:18:47;100237.97;;;20.56;36.47
43071;BME280;36278;47.952;21.714;2023-03-22T12:21:15;100241.25;;;21.25;35.61
43071;BME280;36278;47.952;21.714;2023-03-22T12:23:41;100236.47;;;22.07;34.29
43071;BME280;36278;47.952;21.714;2023-03-22T12:26:14;100234.16;;;22.54;33.85
43071;BME280;36278;47.952;21.714;2023-03-22T12:31:37;100231.72;;;22.59;33.75
43071;BME280;36278;47.952;21.714;2023-03-22T12:34:06;100226.69;;;21.70;34.54
43071;BME280;36278;47.952;21.714;2023-03-22T12:36:40;100241.72;;;21.14;35.19
43071;BME280;36278;47.952;21.714;2023-03-22T12:39:13;100236.69;;;21.25;34.93
43071;BME280;36278;47.952;21.714;2023-03-22T12:41:46;100228.34;;;21.06;35.16
43071;BME280;36278;47.952;21.714;2023-03-22T12:44:31;100231.56;;;20.11;36.97
43071;BME280;36278;47.952;21.714;2023-03-22T12:47:40;100238.88;;;20.02;37.49
43071;BME280;36278;47.952;21.714;2023-03-22T12:50:14;100227.88;;;20.73;36.68
43071;BME280;36278;47.952;21.714;2023-03-22T12:52:47;100218.44;;;21.36;35.96
43071;BME280;36278;47.952;21.714;2023-03-22T12:55:34;100213.44;;;22.33;35.18
43071;BME280;36278;47.952;21.714;2023-03-22T12:58:04;100217.09;;;22.04;34.75
43071;BME280;36278;47.952;21.714;2023-03-22T13:00:35;100224.72;;;21.43;35.58
43071;BME280;36278;47.952;21.714;2023-03-22T13:05:45;100212.16;;;22.29;33.46
43071;BME280;36278;47.952;21.714;2023-03-22T13:08:10;100203.84;;;20.71;35.38
43071;BME280;36278;47.952;21.714;2023-03-22T13:10:39;100209.16;;;20.19;35.86
43071;BME280;36278;47.952;21.714;2023-03-22T13:21:22;100198.00;;;22.48;32.27
43071;BME280;36278;47.952;21.714;2023-03-22T13:26:18;100207.03;;;21.25;34.20
43071;BME280;36278;47.952;21.714;2023-03-22T13:28:55;100211.06;;;22.02;33.69
43071;BME280;36278;47.952;21.714;2023-03-22T13:34:29;100221.13;;;20.16;36.16
43071;BME280;36278;47.952;21.714;2023-03-22T13:36:56;100222.22;;;19.05;37.84
43071;BME280;36278;47.952;21.714;2023-03-22T13:39:24;100210.44;;;18.67;38.69
43071;BME280;36278;47.952;21.714;2023-03-22T13:42:19;100212.41;;;18.90;38.61
43071;BME280;36278;47.952;21.714;2023-03-22T13:44:54;100207.81;;;19.07;38.46
43071;BME280;36278;47.952;21.714;2023-03-22T13:47:44;100205.50;;;19.35;38.21
43071;BME280;36278;47.952;21.714;2023-03-22T13:50:18;100201.81;;;18.88;38.78
43071;BME280;36278;47.952;21.714;2023-03-22T13:53:03;100216.13;;;18.48;39.23
43071;BME280;36278;47.952;21.714;2023-03-22T13:58:47;100209.91;;;18.64;39.93
43071;BME280;36278;47.952;21.714;2023-03-22T14:03:48;100216.97;;;18.40;39.43